Tiempo atmosférico en la estación meteorológica de Cabo Busto, Asturias (63 m.)



Fecha
DESCASC
Temp. máxima en grados centígrados (hora)
DESCASC
Temp. mínima en grados centígrados (hora)
DESCASC
Temp. media en grados centígrados
DESCASC
Racha de viento máxima en m/sg (hora)
DESCASC
Velocidad máxima media en intervalos de 10 minutos(hora)
DESCASC
Precipitaciones diarias en mm
DESCASC
Precipitaciones de 00:00 a 06:00 en mm
DESCASC
Precipitaciones de 06:00 a 12:00 en mm
DESCASC
Precipitaciones de 12:00 a 18:00 en mm
DESCASC
Precipitaciones de 18:00 a 24:00 en mm
DESCASC
18-02-2018 14.5 (14:20) 5.7 (03:20) 10.1 7.78 (06:00) 5.83 (06:00) 0 0 0 0 0
17-02-2018 15.1 (13:40) 6.1 (23:59) 10.6 8.61 (00:10) 6.11 (00:10) 0.8 0.4 0.4 0 0
16-02-2018 13.5 (14:50) 9.2 (23:59) 11.3 16.39 (22:00) 10.28 (22:20) 4.6 2.4 0.2 0 2
15-02-2018 18.9 (14:50) 13.1 (00:00) 16 19.44 (03:10) 14.44 (03:10) -- 0 -- -- 0.6
14-02-2018 18.2 (13:40) 10.6 (00:00) 14.4 25.56 (08:20) 18.06 (14:50) -- 0 -- 0 0
13-02-2018 11.3 (15:50) 3.5 (00:00) 7.4 32.22 (07:00) 23.33 (07:40) 10 0.2 5.2 0 4.6
12-02-2018 9 (16:50) 3.5 (00:00) 6.3 17.5 (11:50) 10.56 (00:20) 6.2 0 4 2.2 0
11-02-2018 14 (10:10) 8.3 (00:00) 11.2 -- (--) -- (--) 6.4 0 1.2 4.8 0.4
10-02-2018 13.2 (23:59) 5.4 (00:00) 9.3 15.28 (23:59) 10 (22:50) 0.8 0.8 0 0 0
09-02-2018 11.4 (09:40) 5.8 (00:00) 8.6 -- (--) -- (--) 3.2 1.4 1.8 0 0
08-02-2018 11.1 (16:40) 2.2 (00:00) 6.7 8.61 (04:20) 6.39 (04:10) 0.4 0.4 0 0 0
07-02-2018 8 (02:30) 2.5 (00:00) 5.3 -- (--) -- (--) 9 2.2 3.8 1.8 1.2
06-02-2018 -- (--) -- (--) -- -- (--) -- (--) -- -- -- 4.2 3
05-02-2018 8.4 (15:30) 5.8 (00:00) 7.1 23.89 (06:50) 8.33 (05:00) 3.6 3.2 0.2 0 0.2
04-02-2018 9.1 (01:50) 5.2 (00:00) 7.2 20.56 (02:00) 15.28 (02:00) 12.8 0.8 1.4 4.8 5.8
03-02-2018 11 (10:50) 5.5 (00:00) 8.3 23.89 (21:40) 15.83 (18:10) 11 0.2 0.2 6.8 3.8
02-02-2018 10 (15:50) 5 (00:00) 7.5 22.22 (11:20) 12.78 (18:10) 5.4 0.6 1.8 1 2
01-02-2018 11 (00:00) 5.9 (00:00) 8.5 25 (11:40) 17.5 (11:40) 7.6 1.6 2.4 1.2 2.4
31-01-2018 12.8 (13:30) 5.4 (00:00) 9.1 12.78 (23:59) 9.17 (21:50) 0 0 0 0 0
30-01-2018 11.6 (15:50) 5.5 (00:00) 8.6 10.83 (13:10) 5.56 (13:40) 0 0 0 0 0
29-01-2018 12.9 (14:40) 4.2 (00:00) 8.5 6.11 (18:10) 5 (10:00) 0 0 0 0 0
28-01-2018 11.8 (16:00) 6.5 (00:00) 9.2 12.22 (14:10) 7.22 (18:00) 0 0 0 0 0
27-01-2018 12.9 (13:30) 7.4 (00:00) 10.1 13.89 (02:10) 11.39 (02:10) 1.6 1.2 0 0 0.4
26-01-2018 12.5 (12:50) 7.2 (00:00) 9.8 22.5 (08:20) 16.39 (08:20) 6.4 5.6 0.4 0 0.4
25-01-2018 11.4 (02:10) 8.3 (00:00) 9.8 17.5 (17:10) 11.67 (06:50) 10 6.4 2.2 1.4 0
24-01-2018 18.5 (13:40) 7.7 (00:00) 13.1 21.94 (18:50) 16.67 (21:00) 1 0 0 0.4 0.6
23-01-2018 17.5 (13:30) 9.5 (00:00) 13.5 11.39 (13:20) 8.06 (12:50) 0 0 0 0 0
22-01-2018 17.8 (15:10) 12.2 (00:00) 15 15.83 (10:30) 9.72 (10:30) 0 0 0 0 0

Gráficas

Temp. máximas Temp. mínimas Temp. medias Precipitaciones Rachas de viento máximas Velocidades máximas media en intervalos de 10 minutos

Datos horarios

Fecha y hora oficial Temperatura (ºC) Velocidad del viento (km/h) Dirección del viento Racha (km/h) Dirección de racha Precipitación (mm) Presión (hPa) Tendencia (hPa) Humedad (%)
2018-02-20 23:00:00 10.7 11 Oeste 23 Oeste 0 1016 -0.6 86
2018-02-20 22:00:00 10.8 10 Oeste 27 Oeste 0 1016 -0.7 90
2018-02-20 21:00:00 11 11 Norte 23 Este 0 1016.1 -0.5 90
2018-02-20 20:00:00 10.8 6 Noroeste 10 Oeste 0 1016.6 -0.2 89
2018-02-20 19:00:00 11.1 2 Sur 8 Noroeste 0 1016.7 -0.6 85
2018-02-20 18:00:00 11.4 0 Calma 7 Sur 0 1016.6 -1 85
2018-02-20 17:00:00 11.5 5 Sur 14 Nordeste 0 1016.8 -1.2 84
2018-02-20 16:00:00 11.7 5 Norte 36 Este 0 1017.3 -0.9 80
2018-02-20 15:00:00 11.8 3 Este 9 Sudeste 0 1017.6 -0.4 83
2018-02-20 14:00:00 11.4 6 Sudeste 13 Sudeste 0 1018 -0.1 84
2018-02-20 13:00:00 11.9 4 Oeste 11 Nordeste 0 1018.2 0.2 82
2018-02-20 12:00:00 12.7 5 Este 11 Sudeste 0 1018 0.5 80
2018-02-20 11:00:00 11.4 7 Sur 15 Sur 0 1018.1 1 87
2018-02-20 10:00:00 9.6 11 Sudeste 16 Sudeste 0 1018 0.7 88
2018-02-20 09:00:00 9.1 13 Sudeste 18 Sudeste 0 1017.5 0.5 88
2018-02-20 08:00:00 9 8 Sudeste 18 Sudeste 0 1017.1 0 89
2018-02-20 07:00:00 9.6 13 Este 27 Nordeste 0 1017.3 0.2 87
2018-02-20 06:00:00 10.6 2 Sudeste 16 Noroeste 0 1017 -0.2 87
2018-02-20 05:00:00 11.1 5 Oeste 18 Oeste 0 1017.1 -0.1 86
2018-02-20 04:00:00 11.1 9 Oeste 17 Noroeste 0 1017.1 0 86
2018-02-20 03:00:00 11 8 Norte 18 Noroeste 0 1017.2 0.3 86
2018-02-20 02:00:00 11.2 14 Norte 21 Norte 0 1017.2 0.3 86
2018-02-20 01:00:00 11.2 15 Norte 22 Norte 0 1017.1 0.1 86
2018-02-20 00:00:00 11.3 8 Noroeste 19 Norte 0 1016.9 0 87
2018-02-19 23:00:00 11.3 14 Norte 22 Norte 0 1016.9 0.2 87
2018-02-19 22:00:00 11.3 13 Norte 20 Noroeste 0 1017 0.4 88
2018-02-19 21:00:00 11.3 9 Noroeste 15 Noroeste 0 1016.9 0.6 88
2018-02-19 20:00:00 11.3 11 Noroeste 18 Noroeste 0 1016.7 0.4 88
2018-02-19 19:00:00 11.3 10 Norte 29 Noroeste 0 1016.6 0.3 89
2018-02-19 18:00:00 11.4 12 Norte 74 Noroeste 0 1016.3 -0.1 90
2018-02-19 17:00:00 11.8 7 Noroeste 50 Noroeste 0 1016.3 -0.1 90
2018-02-19 16:00:00 12.2 6 Oeste 18 Oeste 0 1016.3 -0.4 90
2018-02-19 15:00:00 11.7 12 Noroeste 28 Noroeste 0 1016.4 -0.4 90
2018-02-19 14:00:00 11.2 16 Oeste 21 Oeste 0 1016.4 0.1 90
2018-02-19 13:00:00 10.8 16 Oeste 21 Oeste 0 1016.7 0.5 91
2018-02-19 12:00:00 11 14 Oeste 30 Noroeste 0 1016.8 0.7 90
2018-02-19 11:00:00 11.4 13 Oeste 31 Noroeste 0.4 1016.3 0.4 89
2018-02-19 10:00:00 11.1 16 Oeste 25 Oeste 0.6 1016.2 0.5 88
2018-02-19 09:00:00 10.9 19 Oeste 28 Oeste 0 1016.1 0.3 88
2018-02-19 08:00:00 11 19 Noroeste 27 Noroeste 0 1015.9 0.2 88
2018-02-19 07:00:00 10.8 22 Oeste 26 Oeste 0 1015.7 -0.3 87
2018-02-19 06:00:00 10.7 19 Oeste 23 Oeste 0.2 1015.8 -0.5 87
2018-02-19 05:00:00 10.7 16 Oeste 21 Oeste 0 1015.7 -0.8 86
2018-02-19 04:00:00 10.7 12 Oeste 20 Oeste 0 1016 -1.2 85
2018-02-19 03:00:00 11 18 Oeste 23 Oeste 0 1016.3 -1.1 83
2018-02-19 02:00:00 11 17 Oeste 21 Oeste 0 1016.5 -1.2 83
2018-02-19 01:00:00 11.1 12 Oeste 17 Oeste 0 1017.2 -1.1 83
2018-02-19 00:00:00 11.2 13 Oeste 18 Oeste 0 1017.4 -1 84
2018-02-18 23:00:00 11.2 14 Oeste 20 Oeste 0 1017.7 -1.1 85
2018-02-18 22:00:00 11.4 13 Oeste 21 Oeste 0 1018.3 -0.4 85
2018-02-18 21:00:00 11.3 12 Oeste 19 Oeste 0 1018.4 -0.3 86
2018-02-18 20:00:00 11.4 14 Oeste 21 Oeste 0 1018.8 -0.1 86
2018-02-18 19:00:00 11.5 17 Noroeste 25 Oeste 0 1018.7 -0.8 84
2018-02-18 18:00:00 11.9 13 Noroeste 20 Oeste 0 1018.7 -0.9 82
2018-02-18 17:00:00 11.9 10 Oeste 19 Oeste 0 1018.9 -0.7 79
2018-02-18 16:00:00 13.2 8 Noroeste 18 Oeste 0 1019.5 -0.6 74
2018-02-18 15:00:00 14.4 9 Noroeste 20 Oeste 0 1019.6 -1 72
2018-02-18 14:00:00 13.8 12 Noroeste 24 Noroeste 0 1019.6 -1.2 69
2018-02-18 13:00:00 13.6 6 Noroeste 12 Oeste 0 1020.1 -0.7 66
2018-02-18 12:00:00 11.9 5 Sudoeste 13 Sur 0 1020.6 -0.2 66
2018-02-18 11:00:00 9.2 11 Sur 19 Sur 0 1020.8 0.8 74
2018-02-18 10:00:00 8 13 Sur 16 Sudoeste 0 1020.8 0.8 76
2018-02-18 09:00:00 7.8 10 Sudoeste 21 Sur 0 1020.8 0.6 77
2018-02-18 08:00:00 6.4 14 Sur 27 Sudeste 0 1020 -0.6 77
2018-02-18 07:00:00 6.7 19 Sur 26 Sudeste 0 1020 -1.2 75
2018-02-18 06:00:00 6.2 21 Sur 28 Sudeste 0 1020.2 -1.4 80
2018-02-18 05:00:00 6.2 19 Sur 24 Sur 0 1020.6 -1.5 80
2018-02-18 04:00:00 5.8 18 Sur 24 Sudeste 0 1021.2 -1.3 81
2018-02-18 03:00:00 5.8 19 Sur 25 Sur 0 1021.6 -0.8 82
2018-02-18 02:00:00 5.9 19 Sur 24 Sur 0 1022.1 0 83
2018-02-18 01:00:00 6 17 Sur 23 Sur 0 1022.5 0.5 84
2018-02-18 00:00:00 6.1 18 Sur 22 Sur 0 1022.4 0.4 85
2018-02-17 23:00:00 6.4 18 Sur 20 Sur 0 1022.1 0.4 85
2018-02-17 22:00:00 6.7 16 Sur 19 Sur 0 1022 0.5 85
2018-02-17 21:00:00 7.4 13 Sur 16 Sur 0 1022 0.7 83
2018-02-17 20:00:00 8.5 9 Sur 11 Sur 0 1021.7 0.4 79
2018-02-17 19:00:00 11 6 Noroeste 10 Noroeste 0 1021.5 0.4 72
2018-02-17 18:00:00 12.4 6 Noroeste 13 Noroeste 0 1021.3 0 68
2018-02-17 17:00:00 13 10 Noroeste 19 Noroeste 0 1021.3 -0.3 67
2018-02-17 16:00:00 12.7 14 Noroeste 18 Noroeste 0 1021.1 -0.7 74
2018-02-17 15:00:00 12.9 10 Noroeste 28 Noroeste 0 1021.3 -0.3 71
2018-02-17 14:00:00 14.7 11 Oeste 18 Noroeste 0 1021.6 0.4 71
2018-02-17 13:00:00 14.5 10 Oeste 16 Oeste 0 1021.8 1.2 71
2018-02-17 12:00:00 13.3 10 Noroeste 20 Oeste 0 1021.6 1.3 75
2018-02-17 11:00:00 11.3 10 Oeste 15 Oeste 0 1021.2 1.7 77
2018-02-17 10:00:00 10.5 12 Sudoeste 19 Sudoeste 0 1020.6 1.5 78
2018-02-17 09:00:00 9.2 13 Sudoeste 20 Sudoeste 0 1020.3 1.7 84
2018-02-17 08:00:00 9 12 Sudoeste 27 Oeste 0.2 1019.5 1.1 83
2018-02-17 07:00:00 9.5 17 Oeste 24 Oeste 0.2 1019.1 0.8 81
2018-02-17 06:00:00 9.3 12 Sudoeste 20 Sudoeste 0 1018.6 0.4 77
2018-02-17 05:00:00 9.4 12 Sudoeste 21 Sudoeste 0 1018.4 0.5 78
2018-02-17 04:00:00 9.4 13 Sudoeste 24 Oeste 0 1018.3 0.9 82
2018-02-17 03:00:00 9.7 20 Oeste 26 Oeste 0 1018.2 1.1 85
2018-02-17 02:00:00 9.8 16 Oeste 26 Oeste 0 1017.9 1.2 86
2018-02-17 01:00:00 9.4 13 Sur 31 Oeste 0.4 1017.4 1.9 87
2018-02-17 00:00:00 9.3 20 Oeste 39 Oeste 0.6 1017.1 2.6 88
2018-02-16 23:00:00 9.4 20 Oeste 58 Oeste 0.4 1016.7 2.6 89
2018-02-16 22:00:00 10.5 36 Oeste 59 Oeste 1 1015.5 2.5 92
2018-02-16 21:00:00 11.2 28 Oeste 41 Oeste 0 1014.5 2.2 92
2018-02-16 20:00:00 11.7 18 Oeste 33 Oeste 0 1014.1 1.9 92
2018-02-16 19:00:00 12.2 18 Oeste 27 Oeste 0 1013 0.8 92
2018-02-16 18:00:00 12.5 6 Este 14 Este 0 1012.3 -0.7 91
2018-02-16 17:00:00 12.4 8 Este 17 Este 0 1012.2 -1.5 91
2018-02-16 16:00:00 12.7 10 Este 17 Nordeste 0 1012.2 -2.2 91
2018-02-16 15:00:00 13.3 2 Nordeste 74 Este 0 1013 -1.7 92
2018-02-16 14:00:00 13.3 3 Oeste 19 Norte 0 1013.7 -0.9 92
2018-02-16 13:00:00 12.9 2 Sudoeste 8 Oeste 0 1014.4 0.1 93
2018-02-16 12:00:00 12.8 3 Oeste 9 Oeste 0 1014.7 0.5 93
2018-02-16 11:00:00 12.2 2 Oeste 10 Este 0 1014.6 0.3 93
2018-02-16 10:00:00 12.1 7 Este 19 Nordeste 0 1014.3 -0.1 93
2018-02-16 09:00:00 12 9 Nordeste 21 Nordeste 0 1014.2 -0.3 93
2018-02-16 08:00:00 11.9 12 Nordeste 26 Nordeste 0.2 1014.3 -0.3 93
2018-02-16 07:00:00 12 12 Nordeste 25 Nordeste 0 1014.4 -0.5 92
2018-02-16 06:00:00 12.1 10 Nordeste 21 Este 0 1014.5 -0.7 92
2018-02-16 05:00:00 12.3 6 Nordeste 15 Nordeste 0.2 1014.6 -0.6 92
2018-02-16 04:00:00 12.4 3 Sudeste 9 Noroeste 0 1014.9 -0.1 92
2018-02-16 03:00:00 12.3 5 Noroeste 10 Noroeste 0.6 1015.2 0.5 92
2018-02-16 02:00:00 12.4 8 Noroeste 18 Oeste 1.4 1015.2 0.9 91
2018-02-16 01:00:00 12.6 12 Oeste 20 Oeste 0.2 1015 1 90
2018-02-16 00:00:00 13.1 4 Oeste 9 Sudoeste 0 1014.7 0.7 89
2018-02-15 23:00:00 13.4 5 Este 13 Este 0 1014.3 0.3 88
2018-02-15 22:00:00 13.5 10 Este 16 Este 0 1014 0.5 87
2018-02-15 21:00:00 14 2 Nordeste 8 Sudeste 0 1014 1 86
2018-02-15 20:00:00 14 3 Este 7 Sudeste 0.2 1014 2 85
2018-02-15 19:00:00 14.3 3 Este 15 Este 0.4 1013.5 2.4 82
2018-02-15 18:00:00 14.5 10 Este 20 Este 0 1013 2 75
2018-02-15 17:00:00 15.3 7 Nordeste 45 Oeste 0 1012 0.8 72
2018-02-15 16:00:00 18.1 19 Oeste 53 Oeste 0 1011.1 -0.6 61
2018-02-15 15:00:00 18.6 36 Oeste 56 Sudoeste 0 1011 -0.5 58
2018-02-15 14:00:00 18.5 32 Oeste 50 Oeste 0 1011.2 0.2 60
2018-02-15 13:00:00 17.1 13 Oeste 23 Oeste -- 1011.7 1 66
2018-02-15 12:00:00 16.3 9 Este 23 Este -- 1011.5 1.2 70
2018-02-15 11:00:00 17.1 14 Oeste 30 Oeste -- 1011 1.9 65
2018-02-15 10:00:00 17 27 Oeste 41 Sudoeste -- 1010.7 2.2 63
2018-02-15 09:00:00 15.7 21 Oeste 51 Oeste 0 1010.3 2.1 69
2018-02-15 08:00:00 16.4 31 Oeste 50 Oeste 0 1009.1 1.6 65
2018-02-15 07:00:00 16.7 26 Oeste 46 Oeste 0 1008.5 1 63
2018-02-15 06:00:00 16.4 24 Oeste 41 Oeste 0 1008.2 1.2 65
2018-02-15 05:00:00 16.4 35 Oeste 56 Oeste 0 1007.5 0.5 65
2018-02-15 04:00:00 17.1 41 Oeste 70 Oeste 0 1007.5 0.7 61
2018-02-15 03:00:00 17.2 48 Oeste 63 Oeste 0 1007 0.3 61
2018-02-15 02:00:00 17.2 39 Oeste 69 Oeste 0 1007 0.4 61
2018-02-15 01:00:00 17.4 46 Oeste 68 Sudoeste 0 1006.8 0.6 59
2018-02-15 00:00:00 17.2 39 Oeste 64 Oeste 0 1006.7 0.8 59
2018-02-14 23:00:00 17.2 48 Oeste 64 Oeste 0 1006.6 1.2 60
2018-02-14 22:00:00 16.8 43 Oeste 64 Oeste 0 1006.2 1.5 63
2018-02-14 21:00:00 15.6 28 Oeste 56 Oeste 0 1005.9 1.4 70
2018-02-14 20:00:00 16.3 37 Oeste 56 Oeste 0 1005.4 1.8 66
2018-02-14 19:00:00 16.8 41 Oeste 71 Oeste 0 1004.7 1.7 64
2018-02-14 18:00:00 17.2 51 Oeste 63 Oeste 0 1004.5 1.6 63
2018-02-14 17:00:00 17.1 44 Oeste 67 Oeste 0 1003.6 1.5 63
2018-02-14 16:00:00 17.7 43 Oeste 74 Oeste 0 1003 1.3 60
2018-02-14 15:00:00 17.7 58 Oeste 83 Oeste 0 1002.9 1 58
2018-02-14 14:00:00 18.1 63 Oeste 86 Oeste 0 1002.1 -0.7 55
2018-02-14 13:00:00 17.9 54 Oeste 90 Oeste 0 1001.7 -0.6 54
2018-02-14 12:00:00 16.6 46 Sudoeste 92 Sudoeste 0 1001.9 -0.2 58
2018-02-14 11:00:00 15.4 50 Oeste 80 Oeste 0.4 1002.8 2.1 64
2018-02-14 10:00:00 15 58 Oeste 83 Oeste 0.2 1002.3 1.1 64
2018-02-14 09:00:00 14.7 55 Oeste 92 Oeste -- 1002.1 0.6 64
2018-02-14 08:00:00 14.8 60 Oeste 85 Oeste -- 1000.7 -1.7 60
2018-02-14 07:00:00 14.8 53 Oeste 81 Oeste 0 1001.2 -1.6 58
2018-02-14 06:00:00 14.7 38 Sudoeste 79 Oeste 0 1001.5 -2.1 56
2018-02-14 05:00:00 14.3 46 Oeste 84 Oeste -- 1002.4 -2.4 58
2018-02-14 04:00:00 13.4 41 Oeste 62 Oeste -- 1002.8 -2.5 62
2018-02-14 03:00:00 13 43 Oeste 57 Sudoeste 0 1003.6 -2.8 65
2018-02-14 02:00:00 12.4 31 Oeste 49 Oeste 0 1004.8 -2.1 71
2018-02-14 01:00:00 12.1 29 Oeste 41 Oeste 0 1005.3 -1.8 74
2018-02-14 00:00:00 10.6 10 Oeste 17 Sudoeste 0.2 1006.4 -0.9 89
2018-02-13 23:00:00 8.8 9 Sur 13 Sur 0.6 1006.9 -0.8 89
2018-02-13 22:00:00 8.7 9 Sudeste 17 Sudeste 1.8 1007.1 -0.8 88
2018-02-13 21:00:00 8.9 9 Sudeste 15 Sudeste 1 1007.3 -0.3 86
2018-02-13 20:00:00 9.8 4 Oeste 16 Sudoeste 0.6 1007.7 0.2 83
2018-02-13 19:00:00 9.9 11 Oeste 30 Oeste 0.4 1007.9 0.5 82
2018-02-13 18:00:00 10.4 18 Oeste 34 Oeste 0 1007.6 0.5 77
2018-02-13 17:00:00 10.8 19 Oeste 37 Oeste 0 1007.5 0.4 72
2018-02-13 16:00:00 11.3 19 Oeste 39 Oeste 0 1007.4 0.1 74
2018-02-13 15:00:00 10.7 26 Oeste 46 Oeste 0 1007.1 0.2 78
2018-02-13 14:00:00 10.2 30 Oeste 49 Oeste 0 1007.1 0.8 81
2018-02-13 13:00:00 10.2 21 Oeste 54 Oeste 0 1007.3 2.4 79
2018-02-13 12:00:00 9.5 40 Oeste 61 Oeste 0.2 1006.9 2.8 82
2018-02-13 11:00:00 8.6 44 Oeste 72 Sudoeste 0.8 1006.3 7.3 81
2018-02-13 10:00:00 7.8 54 Oeste 71 Sudoeste 2.6 1004.9 5.9 80
2018-02-13 09:00:00 8.7 49 Oeste 109 Oeste -- 1004.1 2.6 74
2018-02-13 08:00:00 9.5 69 Oeste 116 Sudoeste -- 999 -4.9 64
2018-02-13 07:00:00 10.1 75 Oeste 116 Sudoeste -- 999 -7.3 57
2018-02-13 06:00:00 10.1 50 Oeste 91 Oeste 0.2 1001.5 -5.5 56
2018-02-13 05:00:00 9 33 Sudoeste 67 Sur 0 1003.9 -4.4 55
2018-02-13 04:00:00 8.4 31 Sudoeste -- -- 0 1006.3 -4.6 53
2018-02-13 03:00:00 8.7 32 Sudoeste 63 Sudoeste 0 1007 -5.1 44
2018-02-13 02:00:00 8.1 29 Sudoeste 55 Sudoeste 0 1008.3 -4.5 49
2018-02-13 01:00:00 4.7 8 Sur 27 Sudoeste 0 1010.9 -2.5 69
2018-02-13 00:00:00 3.6 8 Sudoeste 15 Sudoeste 0 1012.1 -2.3 77
2018-02-12 23:00:00 4.4 5 Oeste 15 Sudeste 0 1012.8 -2 80
2018-02-12 22:00:00 3.8 9 Sudeste 18 Sudeste 0 1013.4 -1.5 81
2018-02-12 21:00:00 4.2 12 Sur 17 Sudeste 0 1014.4 -0.5 80
2018-02-12 20:00:00 4.6 13 Sur 17 Sur 0 1014.8 -0.6 76
2018-02-12 19:00:00 6.2 10 Sudoeste 26 Oeste 0 1014.9 -1.2 70
2018-02-12 18:00:00 8.1 12 Oeste 36 Oeste 0 1014.9 -1.9 67
2018-02-12 17:00:00 8.6 20 Oeste 30 Oeste 0 1015.4 -2.1 67
2018-02-12 16:00:00 8.1 24 Oeste 32 Oeste 0 1016.1 -1.8 73
2018-02-12 15:00:00 6.7 17 Sudoeste 37 Oeste 0 1016.8 -1.5 81
2018-02-12 14:00:00 5.3 24 Sudoeste 49 Oeste 1.8 1017.5 -0.2 81
2018-02-12 13:00:00 5.6 30 Oeste 44 Oeste 0.4 1017.9 0.4 80
2018-02-12 12:00:00 5.1 17 Oeste 63 Noroeste 0.8 1018.3 1.7 81
2018-02-12 11:00:00 6.6 11 Sudoeste 24 Sudeste 0 1017.7 1.5 82
2018-02-12 10:00:00 4.6 16 Sur 44 Oeste 2.4 1017.5 1.8 84
2018-02-12 09:00:00 5 23 Oeste 42 Oeste 0.4 1016.6 0.4 83
2018-02-12 08:00:00 6 13 Este 33 Oeste 0.4 1016.2 -0.2 81
2018-02-12 07:00:00 6.3 12 Sudoeste 21 Sur 0 1015.7 -1 76
2018-02-12 06:00:00 5.7 13 Sudoeste 19 Sudoeste 0 1016.2 -0.6 78
2018-02-12 05:00:00 5.8 13 Sur 26 Oeste 0 1016.4 -0.1 78
2018-02-12 04:00:00 8 20 Noroeste 30 Noroeste 0 1016.7 -0.1 65
2018-02-12 03:00:00 7.5 22 Norte 45 Noroeste 0 1016.8 0.1 73
2018-02-12 02:00:00 8.7 -- -- -- -- 0 1016.5 -0.1 63
2018-02-12 01:00:00 8.9 30 Oeste -- -- 0 1016.8 0.4 62
2018-02-12 00:00:00 8.4 28 Oeste 45 Oeste 0 1016.7 0.6 69
2018-02-11 23:00:00 8.9 22 Oeste 47 Noroeste 0 1016.6 0.9 68
2018-02-11 22:00:00 9.1 20 Oeste 49 Oeste 0 1016.4 1.7 70
2018-02-11 21:00:00 9.1 33 Oeste 53 Oeste 0 1016.1 1.9 69
2018-02-11 20:00:00 9.6 45 Oeste -- -- 0 1015.7 1.3 70
2018-02-11 19:00:00 9.7 -- -- -- -- 0.4 1014.7 0.5 78
2018-02-11 18:00:00 9.2 -- -- -- -- 0.8 1014.2 0.3 83
2018-02-11 17:00:00 9 24 Sudoeste 46 Oeste 1.2 1014.4 0.5 91
2018-02-11 16:00:00 9.4 32 Oeste -- -- 0.6 1014.2 0.8 92
2018-02-11 15:00:00 9.3 -- -- -- -- 0.6 1013.9 2 93
2018-02-11 14:00:00 9.8 -- -- -- -- 1.2 1013.9 2.6 94
2018-02-11 13:00:00 9.8 -- -- -- -- 0.4 1013.4 2.2 93
2018-02-11 12:00:00 10.5 -- -- -- -- 1 1011.9 1.3 89
2018-02-11 11:00:00 13.1 -- -- -- -- 0.2 1011.3 0.7 74
2018-02-11 10:00:00 13.9 -- -- -- -- 0 1011.2 -0.2 67
2018-02-11 09:00:00 13.8 -- -- -- -- 0 1010.6 -1 67
2018-02-11 08:00:00 13.6 -- -- -- -- 0 1010.6 -1.2 68
2018-02-11 07:00:00 13.6 32 Oeste 53 Oeste 0 1011.4 -0.5 69
2018-02-11 06:00:00 13.3 37 Oeste 49 Sudoeste 0 1011.6 -0.7 70
2018-02-11 05:00:00 13.2 36 Oeste 53 Oeste 0 1011.8 -0.9 71
2018-02-11 04:00:00 13 -- -- -- -- 0 1011.9 -1.1 70
2018-02-11 03:00:00 13.2 34 Oeste -- -- 0 1012.3 -1.1 69
2018-02-11 02:00:00 13.6 25 Oeste -- -- 0 1012.7 -1 70
2018-02-11 01:00:00 13.5 31 Oeste 53 Oeste 0 1013 -0.6 71
2018-02-11 00:00:00 13.1 35 Oeste 55 Oeste 0 1013.4 -0.8 71
2018-02-10 23:00:00 13 36 Sudoeste -- -- 0 1013.7 -1.1 70
2018-02-10 22:00:00 12.5 31 Sudoeste 49 Oeste 0 1013.6 -1.8 70
2018-02-10 21:00:00 12.2 25 Sudoeste 38 Sudoeste 0 1014.2 -1.7 69
2018-02-10 20:00:00 11.4 23 Sudoeste 37 Sudoeste 0 1014.8 -1.6 69
2018-02-10 19:00:00 10.6 13 Sudoeste 36 Sudoeste 0 1015.4 -1.3 69
2018-02-10 18:00:00 10.6 19 Sudoeste 40 Sudoeste 0 1015.9 -0.8 69
2018-02-10 17:00:00 10.7 25 Sudoeste 37 Sudoeste 0 1016.4 -1 67
2018-02-10 16:00:00 10.6 23 Sudoeste 37 Oeste 0 1016.7 -1.7 68
2018-02-10 15:00:00 10.8 29 Oeste 42 Oeste 0 1016.7 -2.3 67
2018-02-10 14:00:00 11.5 29 Oeste 40 Oeste 0 1017.4 -2.1 66
2018-02-10 13:00:00 10.8 24 Oeste 31 Oeste 0 1018.4 -1.5 68
2018-02-10 12:00:00 10.4 20 Sudoeste 28 Sudoeste 0 1019 -0.4 68
2018-02-10 11:00:00 9.7 11 Sudoeste 25 Sur 0 1019.5 0.6 70
2018-02-10 10:00:00 8.1 9 Sudoeste 24 Sudoeste 0 1019.9 1 74
2018-02-10 09:00:00 7.3 12 Sudoeste 25 Sudoeste 0 1019.4 0.3 76
2018-02-10 08:00:00 7 12 Sudoeste 29 Sudoeste 0 1018.9 -0.6 76
2018-02-10 07:00:00 6.3 12 Sur 22 Sur 0 1018.9 -0.7 77
2018-02-10 06:00:00 5.7 14 Sur 22 Sudoeste 0 1019.1 -0.7 80
2018-02-10 05:00:00 6.1 10 Sudoeste 18 Sur 0 1019.5 -0.9 83
2018-02-10 04:00:00 5.6 16 Sur 21 Sudoeste 0 1019.6 -0.9 84
2018-02-10 03:00:00 7 12 Sudoeste 29 Oeste 0.2 1019.8 -1 84
2018-02-10 02:00:00 6.3 10 Sur 24 Oeste 0.6 1020.4 0 81
2018-02-10 01:00:00 7.3 20 Sudoeste 28 Oeste 0 1020.5 0.2 81
2018-02-10 00:00:00 6.3 14 Sudeste 18 Sur 0 1020.8 0.6 80
2018-02-09 23:00:00 6.8 14 Sur 19 Norte 0 1020.4 0.8 76
2018-02-09 22:00:00 8.7 19 Noroeste 38 Norte 0 1020.3 1.3 60
2018-02-09 21:00:00 9 11 Noroeste 27 Noroeste 0 1020.2 1.7 61
2018-02-09 20:00:00 9 18 Noroeste 28 Noroeste 0 1019.6 1.5 61
2018-02-09 19:00:00 9.1 11 Noroeste 26 Norte 0 1019 1.6 64
2018-02-09 18:00:00 9.5 16 Norte 29 Noroeste 0 1018.5 1.7 61
2018-02-09 17:00:00 9.5 21 Noroeste 37 Norte 0 1018.1 1.8 62
2018-02-09 16:00:00 9.8 21 Noroeste 44 Norte 0 1017.4 1.7 58
2018-02-09 15:00:00 9.8 36 Noroeste -- -- 0 1016.8 1.6 57
2018-02-09 14:00:00 9.8 37 Norte -- -- 0 1016.3 2.2 67
2018-02-09 13:00:00 10.3 40 Norte 54 Noroeste 0 1015.7 2.7 79
2018-02-09 12:00:00 10.5 24 Noroeste 56 Noroeste 0 1015.2 2.8 76
2018-02-09 11:00:00 11 33 Noroeste 45 Noroeste 0.2 1014.1 3.1 80
2018-02-09 10:00:00 10.4 -- -- -- -- 1.2 1013 2.7 82
2018-02-09 09:00:00 11.1 35 Noroeste 48 Oeste 0 1012.4 2.2 79
2018-02-09 08:00:00 9.8 41 Oeste 55 Oeste 0.2 1011 0.8 86
2018-02-09 07:00:00 10.1 34 Oeste 53 Oeste 0.2 1010.3 0.3 83
2018-02-09 06:00:00 8 15 Sur 22 Sudoeste 0.2 1010.2 -0.7 88
2018-02-09 05:00:00 6.8 2 Norte 16 Sudeste 0 1010.2 -0.8 87
2018-02-09 04:00:00 6 10 Sudeste 23 Sudeste 0.4 1010 -0.9 87
2018-02-09 03:00:00 6.1 11 Sudeste 20 Sudeste 0.8 1010.9 -0.1 84
2018-02-09 02:00:00 6 12 Sudeste 17 Sur 0 1011 -0.6 73
2018-02-09 01:00:00 6.2 11 Sur 22 Sudeste 0 1010.9 -1.2 69
2018-02-09 00:00:00 5.9 18 Sudeste 24 Sudeste 0 1011 -1.7 68
2018-02-08 23:00:00 5.8 18 Sudeste 26 Sudeste 0 1011.6 -1.7 69
2018-02-08 22:00:00 5.6 17 Sudeste 24 Sudeste 0 1012.1 -1.4 70
2018-02-08 21:00:00 5.5 15 Sudeste 19 Sudeste 0 1012.7 -0.8 70
2018-02-08 20:00:00 6.3 11 Sudeste 15 Oeste 0 1013.3 -0.7 67
2018-02-08 19:00:00 8.1 7 Sudoeste 21 Oeste 0 1013.5 -1 61
2018-02-08 18:00:00 8.9 19 Oeste 27 Oeste 0 1013.5 -1.6 58
2018-02-08 17:00:00 10.4 17 Oeste 22 Oeste 0 1014 -2 52
2018-02-08 16:00:00 10.3 7 Oeste 16 Oeste 0 1014.5 -2.4 61
2018-02-08 15:00:00 8.8 13 Oeste 18 Oeste 0 1015.1 -2.1 64
2018-02-08 14:00:00 9.9 6 Sudoeste 15 Oeste 0 1016 -1.2 63
2018-02-08 13:00:00 9 7 Sur 17 Sur 0 1016.9 -0.1 68
2018-02-08 12:00:00 7.3 13 Sudeste 21 Sur 0 1017.2 0.2 73
2018-02-08 11:00:00 4.2 15 Sudeste 22 Sudeste 0 1017.2 0.5 79
2018-02-08 10:00:00 4.2 17 Sudeste 23 Sudeste 0 1017 0.5 80
2018-02-08 09:00:00 3.1 15 Sudeste 26 Sudeste 0 1017 0.2 81
2018-02-08 08:00:00 2.7 17 Sudeste 25 Sudeste 0 1016.7 0.1 84
2018-02-08 07:00:00 2.5 21 Sudeste 25 Sudeste 0 1016.5 -0.2 84
2018-02-08 06:00:00 3.1 14 Sur 25 Sudeste 0 1016.8 -0.3 84
2018-02-08 05:00:00 2.7 19 Sudeste 31 Sudeste 0 1016.6 -0.8 85
2018-02-08 04:00:00 2.2 22 Sudeste 30 Sudeste 0 1016.7 -0.5 86
2018-02-08 03:00:00 2.5 18 Sudeste 26 Sudeste 0.4 1017.1 -0.1 86
2018-02-08 02:00:00 2.7 18 Sudeste 28 Sudeste 0 1017.4 0 86
2018-02-08 01:00:00 2.6 18 Sudeste 30 Sudeste 0 1017.2 0.2 86
2018-02-08 00:00:00 2.6 19 Sudeste 25 Sudeste 0 1017.2 0.5 86
2018-02-07 23:00:00 3.2 15 Sudeste 22 Sudeste 1.2 1017.4 1.1 86
2018-02-07 22:00:00 3.2 13 Sur 20 Sudeste 0 1017 0.9 85
2018-02-07 21:00:00 3.8 13 Sur 23 Sudeste 0 1016.7 1.3 83
2018-02-07 20:00:00 3.9 18 Sudeste 27 Sudeste 0 1016.3 0.8 82
2018-02-07 19:00:00 5 14 Sudeste 40 Nordeste 0 1016.1 0.5 77
2018-02-07 18:00:00 6.4 10 Noroeste 45 Oeste 0 1015.4 -0.3 66
2018-02-07 17:00:00 6.6 12 Sur 17 Sur 0 1015.5 -0.7 78
2018-02-07 16:00:00 6.6 4 Sur 30 Oeste 0 1015.6 -0.4 75
2018-02-07 15:00:00 7.3 5 Sudeste 36 Noroeste 0 1015.7 -0.1 71
2018-02-07 14:00:00 5.7 8 Nordeste 24 Norte 1.4 1016.2 1.3 79
2018-02-07 13:00:00 5.9 12 Este 43 Este 0.4 1016 1.2 78
2018-02-07 12:00:00 5.1 8 Sur 40 Nordeste 0.6 1015.8 1.8 83
2018-02-07 11:00:00 5.5 9 Sudoeste 49 Norte 0.8 1014.9 1.7 83
2018-02-07 10:00:00 5.5 9 Nordeste 35 Norte 1 1014.8 2.2 83
2018-02-07 09:00:00 6.1 10 Norte 39 Nordeste 1.4 1014 1.5 80
2018-02-07 08:00:00 5.9 23 Nordeste 47 Nordeste 0 1013.2 1 79
2018-02-07 07:00:00 6.6 10 Oeste 26 Noroeste 0 1012.6 0.5 76
2018-02-07 06:00:00 5.9 9 Este 35 Nordeste 0.2 1012.5 0.5 76
2018-02-07 05:00:00 6 7 Norte 34 Oeste 0 1012.2 0.6 73
2018-02-07 04:00:00 6.5 13 Oeste -- -- 0.2 1012.1 1.1 76
2018-02-07 03:00:00 6.7 21 Noroeste 55 Noroeste 0 1012 1 69
2018-02-07 02:00:00 7.8 13 Oeste -- -- 0 1011.6 0.1 70
2018-02-07 01:00:00 7.2 12 Sudoeste -- -- 1.8 1011 -0.1 75
2018-02-07 00:00:00 7.6 14 Oeste 36 Nordeste 0.2 1011 0.8 73
2018-02-06 23:00:00 6.7 11 Noroeste -- -- 0.6 1011.5 1.3 76
2018-02-06 22:00:00 6.5 -- -- -- -- 2.2 1011.1 1.4 82
2018-02-06 21:00:00 4.9 15 Sudeste 21 Sudeste 0 1010.2 0.8 84
2018-02-06 20:00:00 5.1 17 Sudeste 22 Sudeste 0 1010.2 0.7 85
2018-02-06 19:00:00 5.1 17 Sur 53 Oeste 0 1009.7 0.1 85
2018-02-06 18:00:00 6.1 9 Sudoeste -- -- 0.4 1009.4 -0.2 84
2018-02-06 17:00:00 5.7 14 Sur 20 Sudoeste 0 1009.5 -0.7 84
2018-02-06 16:00:00 6 9 Sudoeste 32 Oeste 0.4 1009.6 -1.4 84
2018-02-06 15:00:00 5.3 24 Oeste 37 Oeste 2.8 1009.6 -1.4 83
2018-02-06 14:00:00 6.7 9 Sudoeste 19 Oeste 0.2 1010.2 -1 80
2018-02-06 13:00:00 6.3 4 Sudeste 18 Sur 0.4 1011 -0.4 79
2018-02-06 12:00:00 6.2 -- -- -- -- 0 1011 0.3 84
2018-02-06 11:00:00 4.1 15 Sur 22 Sudeste 0.2 1011.2 -- 87
2018-02-06 10:00:00 2.7 18 Sudeste 32 Este 2 1011.4 -- 87
2018-02-06 09:00:00 2.6 17 Sur -- -- -- 1010.7 -- 88
2018-02-06 08:00:00 -- -- -- -- -- -- -- -- --
2018-02-06 07:00:00 -- -- -- -- -- -- -- -- --
2018-02-06 06:00:00 -- -- -- -- -- -- -- -- --
2018-02-06 05:00:00 -- -- -- -- -- -- -- -- --
2018-02-06 04:00:00 -- -- -- -- -- -- -- -- --
2018-02-06 03:00:00 -- -- -- -- -- -- -- -- --
2018-02-06 02:00:00 -- -- -- -- -- -- -- -- --
2018-02-06 01:00:00 -- -- -- -- -- -- -- -- --
2018-02-06 00:00:00 6.1 12 Oeste 44 Sudoeste 0.2 1011.9 1 65
2018-02-05 23:00:00 7.2 13 Norte 43 Nordeste 0 1011.6 1.1 49
2018-02-05 22:00:00 7.1 13 Oeste 48 Este 0 1011.3 1.5 54
2018-02-05 21:00:00 6.8 13 Noroeste 53 Nordeste 0 1010.9 1.6 54
2018-02-05 20:00:00 7 16 Noroeste 48 Nordeste 0 1010.5 1.6 57
2018-02-05 19:00:00 6.7 14 Noroeste 46 Nordeste 0 1009.8 1.2 52
2018-02-05 18:00:00 6.5 14 Oeste 49 Nordeste 0 1009.3 0.4 64
2018-02-05 17:00:00 7.1 16 Oeste 51 Norte 0 1008.9 -0.2 60
2018-02-05 16:00:00 7.5 16 Sudoeste 50 Nordeste 0 1008.6 -0.8 57
2018-02-05 15:00:00 7.4 14 Sudoeste 52 Nordeste 0 1008.9 -1 55
2018-02-05 14:00:00 7.7 18 Sudoeste 56 Nordeste 0 1009.1 -0.7 49
2018-02-05 13:00:00 7.4 16 Oeste 46 Sudeste 0 1009.4 0 54
2018-02-05 12:00:00 7.4 18 Sudoeste 54 Este 0 1009.9 1.6 62
2018-02-05 11:00:00 7.4 18 Noroeste 48 Norte 0 1009.8 3.2 56
2018-02-05 10:00:00 7.2 19 Oeste 58 Norte 0 1009.4 3.2 57
2018-02-05 09:00:00 7.3 22 Oeste 56 Norte 0 1008.3 2.7 65
2018-02-05 08:00:00 7.3 24 Noroeste 68 Norte 0.2 1006.6 0.5 73
2018-02-05 07:00:00 8 22 Oeste 86 Nordeste 0 1006.2 0.7 78
2018-02-05 06:00:00 7.9 26 Noroeste 72 Nordeste 0 1005.6 -0.2 79
2018-02-05 05:00:00 7.6 30 Nordeste 67 Nordeste 1 1006.1 -0.3 82
2018-02-05 04:00:00 7.7 22 Oeste 80 Nordeste 1.2 1005.5 -1.1 82
2018-02-05 03:00:00 8.1 20 Sudoeste 62 Este 0.4 1005.8 -1.2 80
2018-02-05 02:00:00 7.6 19 Oeste 61 Nordeste 0.4 1006.4 -0.4 80
2018-02-05 01:00:00 7.5 18 Sudoeste 50 Oeste 0.2 1006.6 -0.1 81
2018-02-05 00:00:00 8 19 Sudoeste 57 Sudoeste 0 1007 -0.6 79
2018-02-04 23:00:00 8.2 21 Sudoeste 66 Nordeste 0.2 1006.8 -1.1 75
2018-02-04 22:00:00 7.8 19 Oeste 58 Nordeste 0.4 1006.7 -0.8 79
2018-02-04 21:00:00 7.5 19 Noroeste 68 Nordeste 1.8 1007.6 0.3 84
2018-02-04 20:00:00 7.3 13 Nordeste 43 Nordeste 2.8 1007.9 0.3 85
2018-02-04 19:00:00 7.3 10 Oeste 21 Oeste 0.6 1007.5 -0.1 85
2018-02-04 18:00:00 7.6 7 Oeste 20 Oeste 0.2 1007.3 -1 83
2018-02-04 17:00:00 7.7 9 Sudoeste 19 Sur 1 1007.6 -1.1 81
2018-02-04 16:00:00 7.8 10 Sudoeste 24 Oeste 0 1007.6 -1.5 80
2018-02-04 15:00:00 7.3 5 Sur 13 Sur 1.2 1008.3 -1 83
2018-02-04 14:00:00 6.8 9 Sur 21 Sur 1.4 1008.7 -0.3 83
2018-02-04 13:00:00 5.4 15 Sudeste 26 Sudeste 1 1009.1 0.9 84
2018-02-04 12:00:00 5.8 17 Sudeste 37 Nordeste 0.8 1009.3 1.2 80
2018-02-04 11:00:00 7.9 5 Sudeste 57 Norte 0 1009 1.1 73
2018-02-04 10:00:00 8.1 36 Noroeste 58 Noroeste 0.2 1008.2 0.8 74
2018-02-04 09:00:00 7.9 5 Noroeste 42 Noroeste 0 1008.1 0.9 70
2018-02-04 08:00:00 8.2 18 Noroeste 54 Norte 0 1007.9 1.3 66
2018-02-04 07:00:00 8.6 31 Noroeste 55 Norte 0.4 1007.4 -0.1 62
2018-02-04 06:00:00 8 28 Noroeste 61 Noroeste 0.6 1007.2 -0.2 71
2018-02-04 05:00:00 7.9 45 Noroeste 64 Oeste 0 1006.6 -1.6 67
2018-02-04 04:00:00 8.4 37 Noroeste 59 Noroeste 0 1007.5 -1.1 68
2018-02-04 03:00:00 8.4 52 Noroeste 69 Noroeste 0.2 1007.4 -1.6 65
2018-02-04 02:00:00 7.8 55 Noroeste 74 Noroeste 0 1008.2 -1.1 74
2018-02-04 01:00:00 8.4 52 Noroeste 67 Oeste 0 1008.6 -0.2 65
2018-02-04 00:00:00 8.2 46 Noroeste 70 Noroeste 0.2 1009 0.8 75
2018-02-03 23:00:00 7.9 46 Noroeste 78 Noroeste 0.8 1009.3 0.3 86
2018-02-03 22:00:00 -- 33 Oeste 86 Noroeste 1.2 1008.8 -0.7 88
2018-02-03 21:00:00 8.7 50 Oeste 77 Oeste 0.8 1008.2 -0.8 79
2018-02-03 20:00:00 9 42 Oeste -- -- 0.6 1009 -0.7 85
2018-02-03 19:00:00 8.8 16 Oeste 78 Oeste 0.2 1009.5 -0.5 85
2018-02-03 18:00:00 9.2 49 Noroeste 58 Oeste 0.4 1009 -1.2 85
2018-02-03 17:00:00 9.1 33 Oeste 62 Noroeste 1 1009.7 -0.9 89
2018-02-03 16:00:00 9.7 18 Oeste 56 Oeste 0.8 1010 -0.8 85
2018-02-03 15:00:00 9.5 29 Oeste 64 Oeste 1.2 1010.2 0.6 87
2018-02-03 14:00:00 9.5 36 Oeste 57 Oeste 3.2 1010.6 0.6 88
2018-02-03 13:00:00 9.6 39 Oeste 60 Oeste 0.2 1010.8 0.7 83
2018-02-03 12:00:00 9.9 50 Oeste -- -- 0.2 1009.6 -0.8 75
2018-02-03 11:00:00 10.7 24 Sudoeste 51 Oeste 0 1010 -1 68
2018-02-03 10:00:00 10.3 30 Sudoeste 46 Oeste 0 1010.1 -1.1 66
2018-02-03 09:00:00 9.4 30 Oeste 48 Oeste 0 1010.4 -1.5 70
2018-02-03 08:00:00 8.9 27 Oeste 48 Sudoeste 0 1011 -1 70
2018-02-03 07:00:00 8.2 31 Oeste 48 Oeste 0 1011.2 -1.3 74
2018-02-03 06:00:00 8.2 33 Oeste 47 Sudoeste 0 1011.9 -1.2 72
2018-02-03 05:00:00 8.4 26 Oeste 38 Sudoeste 0 1012 -1.7 70
2018-02-03 04:00:00 7.9 22 Sudoeste 37 Oeste 0 1012.5 -1.7 71
2018-02-03 03:00:00 7.8 25 Oeste 48 Oeste 0 1013.1 -1.1 73
2018-02-03 02:00:00 7.8 19 Sudoeste 37 Oeste 0.2 1013.7 -0.7 72
2018-02-03 01:00:00 7 12 Sudoeste 32 Sudoeste 0 1014.2 -0.2 75
2018-02-03 00:00:00 5.5 17 Sur 23 Sur 0 1014.2 -0.1 83
2018-02-02 23:00:00 6.5 15 Sur 40 Oeste 0.8 1014.4 0.4 80
2018-02-02 22:00:00 6.2 15 Sur 22 Sur 0 1014.4 0.9 81
2018-02-02 21:00:00 7.1 14 Sudoeste 27 Oeste 1 1014.3 1.5 78
2018-02-02 20:00:00 8 16 Oeste 27 Oeste 0 1014 1.1 69
2018-02-02 19:00:00 8.1 12 Oeste 55 Noroeste 0.2 1013.5 0.8 67
2018-02-02 18:00:00 9.1 33 Noroeste 43 Noroeste 0 1012.8 0.1 61
2018-02-02 17:00:00 9.4 19 Noroeste 28 Noroeste 0 1012.9 0 60
2018-02-02 16:00:00 9.4 20 Noroeste 36 Noroeste 0 1012.7 0 64
2018-02-02 15:00:00 9.3 22 Noroeste 35 Noroeste 0 1012.7 -0.3 62
2018-02-02 14:00:00 9.3 20 Noroeste 38 Oeste 0 1012.9 0.1 63
2018-02-02 13:00:00 6.8 23 Noroeste 62 Noroeste 1 1012.7 0.2 80
2018-02-02 12:00:00 9.3 13 Oeste 80 Noroeste 0 1013 1.2 72
2018-02-02 11:00:00 7.5 10 Noroeste 25 Oeste 0 1012.8 2 73
2018-02-02 10:00:00 6.3 13 Oeste 40 Oeste 0.2 1012.5 2.3 81
2018-02-02 09:00:00 6.1 15 Nordeste 46 Nordeste 1.6 1011.8 2.2 80
2018-02-02 08:00:00 7.8 12 Norte 48 Norte 0 1010.8 1.1 72
2018-02-02 07:00:00 8.7 19 Noroeste 42 Noroeste 0 1010.2 0.8 57
2018-02-02 06:00:00 8.5 31 Norte 54 Noroeste 0 1009.6 0 61
2018-02-02 05:00:00 8.3 20 Noroeste 40 Norte 0 1009.7 -0.2 65
2018-02-02 04:00:00 8.7 28 Noroeste 53 Norte 0.4 1009.4 -0.2 65
2018-02-02 03:00:00 8.2 10 Oeste 44 Noroeste 0 1009.6 -0.1 69
2018-02-02 02:00:00 8 7 Noroeste 53 Noroeste 0.2 1009.9 0.3 71
2018-02-02 01:00:00 8.4 7 Noroeste 32 Norte 0 1009.6 0.3 73
2018-02-02 00:00:00 8.1 13 Noroeste 58 Norte 0.2 1009.7 1.6 65
2018-02-01 23:00:00 8.5 12 Oeste 32 Noroeste 0 1009.6 1.3 70
2018-02-01 22:00:00 7.2 10 Noroeste 86 Norte 2.2 1009.3 1.9 75
2018-02-01 21:00:00 9.2 26 Norte 39 Norte 0 1008.1 1.9 65
2018-02-01 20:00:00 8.8 10 Noroeste 65 Oeste 0 1008.3 2.1 74
2018-02-01 19:00:00 8.9 39 Noroeste 65 Noroeste 0 1007.4 -0.2 71
2018-02-01 18:00:00 8.7 59 Noroeste 69 Oeste 0.6 1006.2 -1.3 73
2018-02-01 17:00:00 9.2 56 Noroeste 70 Oeste 0.2 1006.2 -2.6 67
2018-02-01 16:00:00 8.8 36 Oeste 57 Oeste 0 1007.6 -2 74
2018-02-01 15:00:00 9.4 51 Noroeste 87 Oeste 0.2 1007.5 -2.8 66
2018-02-01 14:00:00 9.3 22 Oeste 53 Oeste 0 1008.8 -0.1 79
2018-02-01 13:00:00 8.5 28 Oeste 63 Oeste 0.2 1009.6 0.6 83
2018-02-01 12:00:00 6.9 33 Oeste 90 Noroeste 1.6 1010.3 0.5 89
2018-02-01 11:00:00 9.4 55 Noroeste 77 Oeste 0.2 1008.9 -1.3 73
2018-02-01 10:00:00 9.1 48 Oeste 73 Oeste 0.6 1009 -1.5 81
2018-02-01 09:00:00 9.7 37 Oeste 66 Oeste 0 1009.8 -1.6 74
2018-02-01 08:00:00 9.9 46 Noroeste 55 Noroeste 0 1010.2 -1.1 75
2018-02-01 07:00:00 10.1 41 Oeste 60 Oeste 0 1010.5 -1.4 70
2018-02-01 06:00:00 9.6 18 Oeste 60 Oeste 0 1011.4 -0.5 78
2018-02-01 05:00:00 9.8 47 Noroeste -- -- 0.2 1011.3 -0.8 81
2018-02-01 04:00:00 10.7 33 Oeste -- -- 0 1011.9 -0.2 70
2018-02-01 03:00:00 10.9 32 Oeste 58 Oeste 0 1011.9 -0.2 75
2018-02-01 02:00:00 10.2 38 Oeste 59 Oeste 1 1012.1 -0.5 86
2018-02-01 01:00:00 10.1 35 Oeste 48 Oeste 0.4 1012.1 -0.9 88
2018-02-01 00:00:00 11 23 Oeste 46 Oeste 0 1012.1 -1.8 81
2018-01-31 23:00:00 10.8 27 Oeste 40 Oeste 0 1012.6 -1.3 83
2018-01-31 22:00:00 11 30 Oeste 45 Oeste 0 1013 -1.1 85
2018-01-31 21:00:00 10.7 12 Oeste 19 Oeste 0 1013.9 0 86
2018-01-31 20:00:00 10.1 8 Sudoeste 21 Oeste 0 1013.9 -0.5 84
2018-01-31 19:00:00 10.4 18 Oeste 35 Oeste 0 1014.1 -0.6 80
2018-01-31 18:00:00 10.7 20 Oeste 36 Oeste 0 1013.9 -1.2 79
2018-01-31 17:00:00 10.8 15 Oeste 34 Oeste 0 1014.4 -1.1 78
2018-01-31 16:00:00 11.1 14 Oeste 35 Oeste 0 1014.7 -1.9 75
2018-01-31 15:00:00 11.7 18 Oeste 32 Oeste 0 1015.1 -2.6 73
2018-01-31 14:00:00 12.7 12 Oeste 23 Noroeste 0 1015.5 -2.3 70
2018-01-31 13:00:00 12.1 11 Oeste 20 Oeste 0 1016.6 -1.2 70
2018-01-31 12:00:00 10.7 11 Oeste 14 Oeste 0 1017.7 -0.5 74
2018-01-31 11:00:00 8.7 11 Sur 20 Sur 0 1017.8 0 78
2018-01-31 10:00:00 6.3 17 Sur 25 Sur 0 1017.8 0.8 83
2018-01-31 09:00:00 6.1 16 Sur 21 Sur 0 1018.2 0.2 85
2018-01-31 08:00:00 5.7 14 Sur 20 Sur 0 1017.8 -0.6 85
2018-01-31 07:00:00 6.5 19 Sur 28 Sur 0 1017 -2.1 85
2018-01-31 06:00:00 7.3 15 Sur 22 Sur 0 1018 -0.6 85
2018-01-31 05:00:00 7.1 15 Sur 20 Sur 0 1018.4 -0.7 86
2018-01-31 04:00:00 7 13 Sur 18 Sur 0 1019.1 -0.4 87
2018-01-31 03:00:00 7 13 Sur 17 Sur 0 1018.6 -1.3 87
2018-01-31 02:00:00 6.8 12 Sur 17 Sur 0 1019.1 -1.1 88
2018-01-31 01:00:00 5.9 14 Sur 17 Sur 0 1019.5 -0.9 88
2018-01-31 00:00:00 5.6 13 Sur 15 Sur 0 1019.9 -0.5 88
2018-01-30 23:00:00 5.9 10 Sur 15 Sur 0 1020.2 -0.2 87
2018-01-30 22:00:00 5.8 10 Sur 12 Sur 0 1020.4 0.3 86
2018-01-30 21:00:00 6.4 9 Sur 13 Sudeste 0 1020.4 0.3 84
2018-01-30 20:00:00 8.8 7 Sudeste 25 Este 0 1020.4 0.2 78
2018-01-30 19:00:00 10 15 Este 27 Nordeste 0 1020.1 -0.5 78
2018-01-30 18:00:00 10.4 12 Nordeste 26 Nordeste 0 1020.1 -1 75
2018-01-30 17:00:00 10.8 12 Nordeste 27 Nordeste 0 1020.2 -2 73
2018-01-30 16:00:00 11.4 13 Nordeste 26 Nordeste 0 1020.6 -2.4 71
2018-01-30 15:00:00 11.4 13 Este 27 Nordeste 0 1021.1 -2.6 71
2018-01-30 14:00:00 11.1 13 Nordeste 39 Este 0 1022.2 -1.3 71
2018-01-30 13:00:00 10.9 16 Este 35 Este 0 1023 -0.2 71
2018-01-30 12:00:00 10.3 4 Este 10 Sur 0 1023.7 0.3 73
2018-01-30 11:00:00 9.1 9 Sur 29 Sudeste 0 1023.5 0.1 74
2018-01-30 10:00:00 6.9 17 Sur 30 Sur 0 1023.2 -0.3 80
2018-01-30 09:00:00 5.5 18 Sur 24 Sur 0 1023.4 -0.4 84
2018-01-30 08:00:00 6.3 16 Sur 21 Sur 0 1023.4 -0.6 84
2018-01-30 07:00:00 6.4 15 Sur 21 Sur 0 1023.5 -1.2 84
2018-01-30 06:00:00 7.2 14 Sur 22 Sur 0 1023.8 -1.3 84
2018-01-30 05:00:00 7 17 Sur 22 Sur 0 1024 -1.7 85
2018-01-30 04:00:00 6.9 15 Sur 21 Sur 0 1024.7 -1.4 86
2018-01-30 03:00:00 6.9 15 Sudeste 21 Sudeste 0 1025.1 -1.2 86
2018-01-30 02:00:00 6.7 14 Sudeste 21 Sur 0 1025.7 -0.5 87
2018-01-30 01:00:00 6.4 13 Sur 19 Sur 0 1026.1 0.1 88
2018-01-30 00:00:00 6.2 9 Sur 13 Sur 0 1026.3 0.5 88
2018-01-29 23:00:00 6.5 10 Sur 14 Sur 0 1026.2 0.3 87
2018-01-29 22:00:00 7.7 8 Sudeste 14 Sudeste 0 1026 0.3 87
2018-01-29 21:00:00 8.3 12 Sudeste 16 Sur 0 1025.8 0 86
2018-01-29 20:00:00 9.8 8 Sudeste 19 Este 0 1025.9 -0.2 82
2018-01-29 19:00:00 10.7 11 Este 22 Este 0 1025.7 -0.8 83
2018-01-29 18:00:00 11.3 10 Este 21 Nordeste 0 1025.8 -1.2 81
2018-01-29 17:00:00 12 11 Nordeste 20 Nordeste 0 1026.1 -1.7 78
2018-01-29 16:00:00 12 11 Nordeste 19 Nordeste 0 1026.5 -1.7 72
2018-01-29 15:00:00 12.9 4 Este 12 Nordeste 0 1027 -1.6 73
2018-01-29 14:00:00 12.4 6 Este 16 Nordeste 0 1027.8 -0.5 72
2018-01-29 13:00:00 12.5 6 Este 10 Nordeste 0 1028.2 -0.1 69
2018-01-29 12:00:00 11.6 4 Norte 15 Sur 0 1028.6 0.4 66
2018-01-29 11:00:00 9.5 12 Sur 20 Sur 0 1028.3 0.2 68
2018-01-29 10:00:00 6.5 18 Sur 22 Sur 0 1028.3 0.2 75
2018-01-29 09:00:00 4.7 15 Sur 19 Sur 0 1028.2 0 80
2018-01-29 08:00:00 4.7 15 Sur 20 Sur 0 1028.1 -0.2 81
2018-01-29 07:00:00 4.5 14 Sur 19 Sur 0 1028.1 -0.6 82
2018-01-29 06:00:00 4.5 15 Sur 20 Sur 0 1028.2 -0.6 83
2018-01-29 05:00:00 4.4 16 Sur 20 Sur 0 1028.3 -0.7 84
2018-01-29 04:00:00 4.8 14 Sur 20 Sur 0 1028.7 -0.4 83
2018-01-29 03:00:00 4.7 15 Sur 19 Sur 0 1028.8 -0.4 84
2018-01-29 02:00:00 5.2 14 Sur 18 Sur 0 1029 -0.2 83
2018-01-29 01:00:00 6 12 Sur 17 Sudoeste 0 1029.1 0 82
2018-01-29 00:00:00 6.5 13 Sudoeste 17 Sur 0 1029.2 0.2 81
2018-01-28 23:00:00 7.8 14 Sudoeste 19 Sur 0 1029.2 0.1 82
2018-01-28 22:00:00 8 11 Sudeste 19 Este 0 1029.1 0.2 74
2018-01-28 21:00:00 9.6 13 Este 22 Este 0 1029 0.3 76
2018-01-28 20:00:00 9.8 12 Este 35 Este 0 1029.1 0.3 74
2018-01-28 19:00:00 10.6 24 Este 41 Este 0 1028.9 0 69
2018-01-28 18:00:00 11.1 26 Este 43 Este 0 1028.7 -0.8 69
2018-01-28 17:00:00 11.3 24 Nordeste 44 Nordeste 0 1028.8 -1.1 69
2018-01-28 16:00:00 11.6 24 Nordeste 44 Nordeste 0 1028.9 -1.7 69
2018-01-28 15:00:00 11.6 21 Nordeste 44 Nordeste 0 1029.5 -1.6 69
2018-01-28 14:00:00 11.4 20 Nordeste 40 Nordeste 0 1029.9 -1.1 72
2018-01-28 13:00:00 11.1 15 Este 27 Nordeste 0 1030.6 -0.2 72
2018-01-28 12:00:00 10.9 11 Este 21 Este 0 1031.1 0.8 70
2018-01-28 11:00:00 10 8 Sudeste 15 Sudeste 0 1031 1.1 76
2018-01-28 10:00:00 8 13 Sudeste 22 Sur 0 1030.8 1.1 83
2018-01-28 09:00:00 7 15 Sudeste 25 Sur 0 1030.3 0.8 88
2018-01-28 08:00:00 7.1 18 Sudeste 24 Sur 0 1029.9 0.7 90
2018-01-28 07:00:00 7.4 14 Sudeste 22 Sur 0 1029.7 0.6 90
2018-01-28 06:00:00 7.8 12 Sur 16 Sur 0 1029.5 0.6 89
2018-01-28 05:00:00 8.3 8 Sudeste 12 Sur 0 1029.2 0.4 89
2018-01-28 04:00:00 9 3 Sur 10 Sur 0 1029.1 0.2 88
2018-01-28 03:00:00 9.1 5 Sur 10 Oeste 0 1028.9 0.3 88
2018-01-28 02:00:00 9.7 6 Oeste 11 Oeste 0 1028.8 0 89
2018-01-28 01:00:00 9.6 8 Oeste 13 Sudeste 0 1028.9 0 89
2018-01-28 00:00:00 9.4 8 Sudeste 15 Este 0 1028.6 -0.3 89
2018-01-27 23:00:00 9.6 7 Este 18 Este 0 1028.8 0.4 89
2018-01-27 22:00:00 9.3 8 Este 15 Sudeste 0.2 1028.9 0.8 89
2018-01-27 21:00:00 9.3 10 Sudeste 15 Sudeste 0.2 1028.9 0.9 87
2018-01-27 20:00:00 9.6 6 Sudeste 10 Este 0 1028.4 0.8 86
2018-01-27 19:00:00 9.5 6 Sudeste 10 Sudeste 0 1028.1 0.9 83
2018-01-27 18:00:00 10 5 Sudeste 10 Sur 0 1028 0.6 81
2018-01-27 17:00:00 10.7 6 Sur 13 Noroeste 0 1027.6 -0.2 71
2018-01-27 16:00:00 11.6 6 Oeste 13 Oeste 0 1027.2 -1 74
2018-01-27 15:00:00 11.8 10 Oeste 23 Oeste 0 1027.4 -1 76
2018-01-27 14:00:00 12.9 6 Noroeste 13 Noroeste 0 1027.8 -0.3 76
2018-01-27 13:00:00 11.9 5 Oeste 9 Oeste 0 1028.2 0.1 77
2018-01-27 12:00:00 10.6 7 Sur 18 Sur 0 1028.4 0.8 82
2018-01-27 11:00:00 8.9 14 Sur 19 Sur 0 1028.1 1.3 85
2018-01-27 10:00:00 8.1 14 Sudeste 19 Sur 0 1028.1 1.5 85
2018-01-27 09:00:00 7.7 13 Sur 21 Sudeste 0 1027.6 1.4 86
2018-01-27 08:00:00 7.5 17 Sur 20 Sudeste 0 1026.8 0.8 86
2018-01-27 07:00:00 7.4 16 Sur 19 Sur 0 1026.6 0.9 86
2018-01-27 06:00:00 7.5 15 Sur 20 Sudeste 0 1026.2 0 86
2018-01-27 05:00:00 7.7 15 Sudeste 22 Sudeste 0 1026 0 84
2018-01-27 04:00:00 8.4 9 Sudeste 20 Sudeste 0 1025.7 -0.8 83
2018-01-27 03:00:00 10.5 13 Noroeste 50 Noroeste 0 1026.2 0.2 74
2018-01-27 02:00:00 10 25 Oeste 31 Noroeste 0.4 1026 0.6 80
2018-01-27 01:00:00 9.5 6 Norte 31 Noroeste 0.8 1026.5 1.6 78
2018-01-27 00:00:00 10.6 16 Norte 24 Noroeste 0 1026 1.2 71
2018-01-26 23:00:00 10.9 17 Noroeste 38 Noroeste 0 1025.4 1.2 73
2018-01-26 22:00:00 10 12 Oeste 45 Norte 0 1024.9 1.6 78
2018-01-26 21:00:00 11 24 Noroeste 37 Noroeste 0 1024.8 2.1 71
2018-01-26 20:00:00 9.9 13 Oeste 38 Noroeste 0.4 1024.2 2.3 78
2018-01-26 19:00:00 11 25 Oeste 41 Noroeste 0 1023.3 2 73
2018-01-26 18:00:00 10.6 21 Oeste 61 Noroeste 0 1022.7 1.8 75
2018-01-26 17:00:00 11.2 38 Noroeste 56 Noroeste 0 1021.9 0.7 66
2018-01-26 16:00:00 11.2 44 Noroeste 52 Noroeste 0 1021.3 0.4 68
2018-01-26 15:00:00 11.4 36 Oeste 52 Oeste 0 1020.9 0 67
2018-01-26 14:00:00 11.7 20 Oeste 66 Oeste 0 1021.2 1.1 72
2018-01-26 13:00:00 11.7 28 Oeste 58 Noroeste 0 1020.9 1.4 71
2018-01-26 12:00:00 11.1 44 Oeste 67 Noroeste 0 1020.9 2.8 72
2018-01-26 11:00:00 11.1 53 Oeste 66 Oeste 0 1020.1 3.4 69
2018-01-26 10:00:00 10.3 26 Oeste 59 Oeste 0 1019.5 2.9 72
2018-01-26 09:00:00 10.5 39 Oeste 81 Noroeste 0.2 1018.1 2.7 70
2018-01-26 08:00:00 10.6 47 Oeste 66 Noroeste 0 1016.7 1.6 66
2018-01-26 07:00:00 10.3 38 Oeste 71 Oeste 0.2 1016.6 0.5 73
2018-01-26 06:00:00 10.4 49 Noroeste 75 Oeste 0 1015.4 -0.3 72
2018-01-26 05:00:00 10.7 53 Noroeste 65 Oeste 0.2 1015.1 -0.3 69
2018-01-26 04:00:00 8.8 10 Oeste -- -- 3.4 1016.1 1 79
2018-01-26 03:00:00 7.9 17 Sudoeste -- -- 1.6 1015.7 1 81
2018-01-26 02:00:00 8.6 37 Oeste 50 Oeste 0.2 1015.4 1.1 74
2018-01-26 01:00:00 8.7 39 Oeste 60 Oeste 0.2 1015.1 0.8 76
2018-01-26 00:00:00 8.8 23 Oeste 52 Oeste 0 1014.7 1.2 71
2018-01-25 23:00:00 9.1 32 Oeste 46 Oeste 0 1014.3 1.1 66
2018-01-25 22:00:00 9.1 24 Oeste 46 Oeste 0 1014.3 1.3 68
2018-01-25 21:00:00 9.2 32 Oeste 46 Oeste 0 1013.5 1 66
2018-01-25 20:00:00 9.2 30 Oeste 40 Oeste 0 1013.2 1.5 68
2018-01-25 19:00:00 9.1 29 Oeste 44 Oeste 0 1013 1.8 70
2018-01-25 18:00:00 9.2 27 Oeste 63 Oeste 0.2 1012.5 1.2 74
2018-01-25 17:00:00 10.3 29 Oeste 42 Oeste 0 1011.7 0.5 70
2018-01-25 16:00:00 10.4 27 Oeste 37 Oeste 0 1011.2 -0.1 68
2018-01-25 15:00:00 9.2 22 Oeste 49 Oeste 0.2 1011.3 0 74
2018-01-25 14:00:00 9.1 36 Oeste 52 Oeste 0 1011.2 0.1 76
2018-01-25 13:00:00 9.4 32 Oeste 51 Oeste 1 1011.3 1.3 84
2018-01-25 12:00:00 9.6 33 Oeste 48 Oeste 0.2 1011.3 1.5 77
2018-01-25 11:00:00 9.5 32 Oeste 59 Oeste 1 1011.1 1.2 82
2018-01-25 10:00:00 10.1 30 Oeste 41 Oeste 0 1010 0.4 79
2018-01-25 09:00:00 10.2 32 Oeste 43 Oeste 0.2 1009.8 0.3 77
2018-01-25 08:00:00 9.6 31 Oeste 45 Oeste 0.4 1009.9 0 83
2018-01-25 07:00:00 9.9 41 Oeste 53 Oeste 0.4 1009.6 -0.6 83
2018-01-25 06:00:00 10.6 31 Oeste 46 Oeste 0.8 1009.5 -1.5 89
2018-01-25 05:00:00 11 16 Oeste 30 Oeste 2.2 1009.9 -1.6 91
2018-01-25 04:00:00 11.3 13 Noroeste 35 Oeste 1.6 1010.2 -1.7 91
2018-01-25 03:00:00 11.3 21 Oeste 36 Oeste 1.4 1011 -1.5 91
2018-01-25 02:00:00 11.3 17 Oeste 33 Oeste 0.2 1011.5 -1.2 90
2018-01-25 01:00:00 11.3 16 Oeste 34 Oeste 0.2 1011.9 -0.8 89
2018-01-25 00:00:00 11.1 13 Oeste 42 Oeste 0.4 1012.5 1.4 89
2018-01-24 23:00:00 11.6 28 Oeste 44 Oeste 0.2 1012.7 1.9 88
2018-01-24 22:00:00 11.7 19 Oeste 62 Oeste 0 1012.7 2.3 88
2018-01-24 21:00:00 13 60 Oeste 71 Noroeste 0 1011.1 0.4 82
2018-01-24 20:00:00 16.5 26 Oeste 62 Oeste 0 1010.8 -0.2 54
2018-01-24 19:00:00 17.1 37 Oeste 79 Oeste 0 1010.4 -1.3 52
2018-01-24 18:00:00 16.9 30 Oeste 60 Oeste 0 1010.7 -1.1 53
2018-01-24 17:00:00 17.4 34 Oeste 55 Oeste 0 1011 -1 50
2018-01-24 16:00:00 18.2 15 Sudoeste 61 Oeste 0 1011.7 -2 48
2018-01-24 15:00:00 17.8 32 Oeste 69 Oeste 0.4 1011.8 -2.7 50
2018-01-24 14:00:00 18 35 Oeste 62 Oeste 0 1012 -3.5 47
2018-01-24 13:00:00 17.9 20 Sudoeste 42 Sur 0 1013.7 -2.3 45
2018-01-24 12:00:00 17.1 15 Sudoeste 51 Sur 0 1014.5 -1.5 46
2018-01-24 11:00:00 15 23 Sudoeste 46 Sudoeste 0 1015.5 -0.9 52
2018-01-24 10:00:00 13.6 20 Sudoeste 36 Sur 0 1016 0.2 55
2018-01-24 09:00:00 11.9 25 Sudoeste 41 Sudoeste 0 1016 -0.5 60
2018-01-24 08:00:00 11.9 22 Sudoeste 54 Sudoeste 0 1016.4 -0.7 59
2018-01-24 07:00:00 11.9 28 Sudoeste 49 Sudoeste 0 1015.8 -1.7 58
2018-01-24 06:00:00 10.7 27 Sudoeste 44 Sudoeste 0 1016.5 -1.3 66
2018-01-24 05:00:00 10.5 21 Sudoeste 26 Sudoeste 0 1017.1 -1.1 70
2018-01-24 04:00:00 8 13 Sur 19 Sur 0 1017.5 -1.2 80
2018-01-24 03:00:00 7.9 16 Sudeste 23 Sudeste 0 1017.8 -1.2 80
2018-01-24 02:00:00 8.5 17 Sur 24 Sur 0 1018.2 -1.2 79
2018-01-24 01:00:00 8.8 20 Sur 24 Sur 0 1018.7 -1 78
2018-01-24 00:00:00 9.6 17 Sur 30 Sur 0 1019 -1 76
2018-01-23 23:00:00 9.7 22 Sur 27 Sur 0 1019.4 -1.1 76
2018-01-23 22:00:00 10.3 18 Sudeste 24 Sur 0 1019.7 -0.8 75
2018-01-23 21:00:00 10.4 15 Sur 19 Sur 0 1020 -0.4 73
2018-01-23 20:00:00 11.4 11 Sur 15 Sur 0 1020.5 0.3 70
2018-01-23 19:00:00 14.2 9 Sudoeste 12 Sudoeste 0 1020.5 0.5 58
2018-01-23 18:00:00 15.6 12 Oeste 25 Oeste 0 1020.4 -0.1 55
2018-01-23 17:00:00 16 16 Oeste 28 Oeste 0 1020.2 -0.9 61
2018-01-23 16:00:00 16.1 23 Oeste 31 Oeste 0 1020 -1.7 58
2018-01-23 15:00:00 16 20 Oeste 37 Oeste 0 1020.5 -1.8 64
2018-01-23 14:00:00 16.7 22 Oeste 41 Oeste 0 1021.1 -1.1 62
2018-01-23 13:00:00 16.3 21 Oeste 37 Oeste 0 1021.7 -0.1 57
2018-01-23 12:00:00 14.7 18 Oeste 24 Sudoeste 0 1022.3 1 64
2018-01-23 11:00:00 12.5 10 Sur 17 Sur 0 1022.2 1.3 71
2018-01-23 10:00:00 11.1 14 Sur 21 Sudeste 0 1021.8 1.3 74
2018-01-23 09:00:00 11.6 10 Sudoeste 16 Sur 0 1021.3 1.1 75
2018-01-23 08:00:00 11.5 9 Sur 21 Sudeste 0 1020.9 0.4 75
2018-01-23 07:00:00 10.9 15 Sur 28 Sudoeste 0 1020.5 -0.2 72
2018-01-23 06:00:00 13.9 17 Sudoeste 30 Sudoeste 0 1020.2 -0.5 66
2018-01-23 05:00:00 13.4 10 Sur 28 Sudoeste 0 1020.5 -0.4 69
2018-01-23 04:00:00 13.3 11 Sur 17 Sudoeste 0 1020.7 -0.5 68
2018-01-23 03:00:00 13.9 11 Sudoeste 15 Oeste 0 1020.7 -0.5 72
2018-01-23 02:00:00 14 9 Sudoeste 18 Sudoeste 0 1020.9 -0.2 72
2018-01-23 01:00:00 13.8 10 Oeste 19 Oeste 0 1021.2 0 76
2018-01-23 00:00:00 12.6 9 Sudeste 15 Oeste 0 1021.2 -0.4 69
2018-01-22 23:00:00 14.5 8 Oeste 28 Sur 0 1021.1 -0.4 68
2018-01-22 22:00:00 15.2 15 Sudoeste 28 Sudoeste 0 1021.2 0 64
2018-01-22 21:00:00 14.6 8 Oeste 15 Sudoeste 0 1021.6 1 72
2018-01-22 20:00:00 14.9 11 Sudoeste 27 Sudoeste 0 1021.5 1.2 68
2018-01-22 19:00:00 15.8 18 Sudoeste 37 Sudoeste 0 1021.2 1.4 61
2018-01-22 18:00:00 15.7 19 Oeste 37 Sudoeste 0 1020.6 0.9 66
2018-01-22 17:00:00 16.8 26 Oeste 36 Oeste 0 1020.3 0.1 59
2018-01-22 16:00:00 17.5 29 Sudoeste 40 Sudoeste 0 1019.8 -0.7 55
2018-01-22 15:00:00 17.5 32 Sudoeste 43 Sudoeste 0 1019.7 -1.4 55
2018-01-22 14:00:00 17.4 22 Sudoeste 40 Sudoeste 0 1020.2 -0.5 55
2018-01-22 13:00:00 16.6 24 Sudoeste 43 Sudoeste 0 1020.5 0.3 56
2018-01-22 12:00:00 16.3 25 Sudoeste 40 Sudoeste 0 1021.1 0.9 56
2018-01-22 11:00:00 15.8 29 Oeste 57 Oeste 0 1020.7 0.2 56
2018-01-22 10:00:00 15.1 27 Sudoeste 50 Oeste 0 1020.2 0.1 58
2018-01-22 09:00:00 14.4 31 Oeste 49 Sudoeste 0 1020.2 0.5 62
2018-01-22 08:00:00 13 21 Oeste 41 Oeste 0 1020.5 0.9 73
2018-01-22 07:00:00 13.1 28 Oeste 43 Oeste 0 1020.1 0.7 74
2018-01-22 06:00:00 12.9 20 Oeste 37 Oeste 0 1019.7 -0.2 78
2018-01-22 05:00:00 13.2 17 Oeste 33 Oeste 0 1019.6 -0.6 69
2018-01-22 04:00:00 13.4 24 Oeste 32 Sudoeste 0 1019.4 -1.4 67
2018-01-22 03:00:00 13.2 14 Oeste 25 Oeste 0 1019.9 -1 71
2018-01-22 02:00:00 12.8 20 Oeste 25 Oeste 0 1020.2 -0.7 75
2018-01-22 01:00:00 13.2 16 Oeste 35 Oeste 0 1020.8 -0.2 74
2018-01-22 00:00:00 13.7 22 Oeste 35 Oeste 0 1020.9 -0.1 73